Aerial Acres, California
Current Conditions -  °F | °C
As of 3:58 PM on Wednesday 22 Oct 2014 (Local Time) from KEDW Reporting Station
Broken Clouds Broken Clouds  
Wind Chill: 79°   Ceiling: 30000
Heat Index: 79°   Visibility: 80mi
Dew Point: 31°   Wind: 3mph
Humidity: 17%   Direction: 350°N
Pressure: 29.99"   Gusts: NA
Location:  34.931°N, 117.867°W
Report Text: KEDW 222258Z 35003KT 80SM BKN300 26/00 A2999 RMK AO2A SLP142 CONTRAILS T02611005
Loading
Personal Weather Stations






























Interactive Weather Map
Tropical Storm Tracking
New forecast layout! Learn more

10-Day Weather Forecast

Advertisements
Track Severe Weather on mobile